createdAt,value
2018-05-18T00:01:13.169Z,92.90
2018-05-18T00:06:06.613Z,92.90
2018-05-18T00:11:00.782Z,93.00
2018-05-18T00:15:54.185Z,93.00
2018-05-18T00:20:47.621Z,93.00
2018-05-18T00:25:42.055Z,93.00
2018-05-18T00:30:35.521Z,92.90
2018-05-18T00:35:29.672Z,93.50
2018-05-18T00:40:23.078Z,93.80
2018-05-18T00:45:16.527Z,93.80
2018-05-18T00:50:10.979Z,93.90
2018-05-18T00:55:11.553Z,93.80
2018-05-18T01:00:05.048Z,94.00
2018-05-18T01:04:59.232Z,93.70
2018-05-18T01:09:53.429Z,93.60
2018-05-18T01:14:47.754Z,93.60
2018-05-18T01:19:41.193Z,93.50
2018-05-18T01:24:34.710Z,93.50
2018-05-18T01:29:28.360Z,93.60
2018-05-18T01:34:22.697Z,93.20
2018-05-18T01:39:16.111Z,93.10
2018-05-18T01:44:10.300Z,93.00
2018-05-18T01:49:03.775Z,93.00
2018-05-18T01:53:57.210Z,93.20
2018-05-18T01:58:50.719Z,93.10
2018-05-18T02:03:44.281Z,93.00
2018-05-18T02:08:37.712Z,93.00
2018-05-18T02:13:31.168Z,93.00
2018-05-18T02:18:24.671Z,93.30
2018-05-18T02:23:18.126Z,93.30
2018-05-18T02:28:12.279Z,93.50
2018-05-18T02:33:05.787Z,93.50
2018-05-18T02:37:59.700Z,93.60
2018-05-18T02:42:53.227Z,93.60
2018-05-18T02:47:47.351Z,93.50
2018-05-18T02:52:41.186Z,93.40
2018-05-18T02:57:34.639Z,93.20
2018-05-18T03:02:29.158Z,92.80
2018-05-18T03:07:22.860Z,92.70
2018-05-18T03:12:16.715Z,92.90
2018-05-18T03:17:10.949Z,93.20
2018-05-18T03:22:04.433Z,93.10
2018-05-18T03:26:58.465Z,93.10
2018-05-18T03:31:51.955Z,93.20
2018-05-18T03:36:45.425Z,93.20
2018-05-18T03:41:39.374Z,93.30
2018-05-18T03:46:32.831Z,93.40
2018-05-18T03:51:26.492Z,93.40
2018-05-18T03:56:20.248Z,93.30
2018-05-18T04:01:31.516Z,93.20
2018-05-18T04:06:42.551Z,93.30
2018-05-18T04:11:36.026Z,93.20
2018-05-18T04:16:30.245Z,92.90
2018-05-18T04:21:23.714Z,92.90
2018-05-18T04:26:17.752Z,92.90
2018-05-18T04:31:11.413Z,93.00
2018-05-18T04:36:04.876Z,92.90
2018-05-18T04:40:58.631Z,92.80
2018-05-18T04:45:52.424Z,92.70
2018-05-18T04:50:45.859Z,92.60
2018-05-18T04:55:39.305Z,92.90
2018-05-18T05:00:32.761Z,92.70
2018-05-18T05:05:26.991Z,92.50
2018-05-18T05:10:20.469Z,92.60
2018-05-18T05:15:14.874Z,92.60
2018-05-18T05:20:09.174Z,92.50
2018-05-18T05:25:03.438Z,92.50
2018-05-18T05:29:57.702Z,92.50
2018-05-18T05:34:51.271Z,92.50
2018-05-18T05:39:44.803Z,92.40
2018-05-18T05:44:38.251Z,92.10
2018-05-18T05:49:31.760Z,92.00
2018-05-18T05:54:25.658Z,91.90
2018-05-18T05:59:19.078Z,91.30
2018-05-18T06:04:12.520Z,91.40
2018-05-18T06:09:05.994Z,91.10
2018-05-18T06:13:59.414Z,90.60
2018-05-18T06:18:53.605Z,90.30
2018-05-18T06:23:49.560Z,90.20
2018-05-18T06:28:43.271Z,90.10
2018-05-18T06:33:37.438Z,89.70
2018-05-18T06:38:37.621Z,89.70
2018-05-18T06:43:48.326Z,87.10
2018-05-18T06:48:42.794Z,87.10
2018-05-18T06:53:36.258Z,86.80
2018-05-18T06:58:43.923Z,87.10
2018-05-18T07:03:38.495Z,86.90
2018-05-18T07:08:32.033Z,86.10
2018-05-18T07:13:32.925Z,85.10
2018-05-18T07:18:31.204Z,81.80
2018-05-18T07:23:25.116Z,80.80
2018-05-18T07:28:18.576Z,80.60
2018-05-18T07:33:13.531Z,81.30
2018-05-18T07:38:07.064Z,82.20
2018-05-18T07:43:03.487Z,81.80
2018-05-18T07:47:57.148Z,82.70
2018-05-18T07:52:50.787Z,81.10
2018-05-18T07:57:44.223Z,78.90
2018-05-18T08:02:40.479Z,78.80
2018-05-18T08:07:34.616Z,78.40
2018-05-18T08:12:30.614Z,76.80
2018-05-18T08:17:24.369Z,76.40
2018-05-18T08:22:18.016Z,76.10
2018-05-18T08:27:23.473Z,76.50
2018-05-18T08:32:16.864Z,73.80
2018-05-18T08:37:10.307Z,73.60
2018-05-18T08:42:04.607Z,72.20
2018-05-18T08:46:58.198Z,72.20
2018-05-18T08:51:52.057Z,70.80
2018-05-18T08:56:46.429Z,72.10
2018-05-18T09:01:40.157Z,73.30
2018-05-18T09:06:33.722Z,71.80
2018-05-18T09:11:33.610Z,71.60
2018-05-18T09:16:28.582Z,72.60
2018-05-18T09:21:23.035Z,69.30
2018-05-18T09:26:16.489Z,69.30
2018-05-18T09:31:10.736Z,69.30
2018-05-18T09:36:07.223Z,68.00
2018-05-18T09:41:02.196Z,65.90
2018-05-18T09:45:57.510Z,66.60
2018-05-18T09:50:54.584Z,66.10
2018-05-18T09:55:51.249Z,61.70
2018-05-18T10:00:53.396Z,62.90
2018-05-18T10:05:53.377Z,62.00
2018-05-18T10:10:52.731Z,62.00
2018-05-18T10:15:53.290Z,61.80
2018-05-18T10:20:53.169Z,66.30
2018-05-18T10:25:52.764Z,66.30
2018-05-18T10:30:50.562Z,62.80
2018-05-18T10:35:50.614Z,62.60
2018-05-18T10:40:46.616Z,61.10
2018-05-18T10:45:40.307Z,60.70
2018-05-18T10:50:33.817Z,59.40
2018-05-18T10:55:27.587Z,55.90
2018-05-18T11:00:21.074Z,57.50
2018-05-18T11:05:20.555Z,56.60
2018-05-18T11:10:14.519Z,55.60
2018-05-18T11:15:15.415Z,53.10
2018-05-18T11:20:09.660Z,53.00
2018-05-18T11:25:11.220Z,54.00
2018-05-18T11:30:12.480Z,56.10
2018-05-18T11:46:04.808Z,55.70
2018-05-18T11:56:28.375Z,57.40
2018-05-18T12:01:22.159Z,57.40
2018-05-18T12:06:16.758Z,56.90
2018-05-18T12:11:11.276Z,55.50
2018-05-18T12:16:09.327Z,54.20
2018-05-18T12:26:31.872Z,51.60
2018-05-18T12:31:31.534Z,55.10
2018-05-18T12:36:25.866Z,55.10
2018-05-18T12:41:20.285Z,51.00
2018-05-18T12:46:15.767Z,50.20
2018-05-18T12:51:10.714Z,48.50
2018-05-18T12:56:04.276Z,48.40
2018-05-18T13:00:57.821Z,46.20
2018-05-18T13:05:51.780Z,45.50
2018-05-18T13:10:45.389Z,42.80
2018-05-18T13:15:40.721Z,40.90
2018-05-18T13:20:34.553Z,44.30
2018-05-18T13:25:28.474Z,46.80
2018-05-18T13:30:23.552Z,44.60
2018-05-18T13:35:17.740Z,44.60
2018-05-18T13:40:15.008Z,42.90
2018-05-18T13:45:12.009Z,46.20
2018-05-18T13:50:07.406Z,45.30
2018-05-18T13:55:04.768Z,43.60
2018-05-18T14:16:28.959Z,44.60
2018-05-18T14:26:57.470Z,47.80
2018-05-18T14:37:22.726Z,47.00
2018-05-18T14:42:19.051Z,44.80
2018-05-18T14:47:14.385Z,44.80
2018-05-18T14:52:13.172Z,44.00
2018-05-18T15:08:04.552Z,40.40
2018-05-18T15:12:59.226Z,41.20
2018-05-18T15:17:53.683Z,42.10
2018-05-18T15:22:47.452Z,41.00
2018-05-18T15:27:41.050Z,42.60
2018-05-18T15:32:34.502Z,42.90
2018-05-18T15:37:30.002Z,43.70
2018-05-18T15:42:23.463Z,44.40
2018-05-18T15:47:16.913Z,45.60
2018-05-18T15:52:10.508Z,47.20
2018-05-18T15:57:04.109Z,46.90
2018-05-18T16:01:58.278Z,49.50
2018-05-18T16:06:51.739Z,49.50
2018-05-18T16:11:45.406Z,51.20
2018-05-18T16:16:39.350Z,52.10
2018-05-18T16:21:32.779Z,52.50
2018-05-18T16:26:26.171Z,52.70
2018-05-18T16:31:19.621Z,51.90
2018-05-18T16:36:13.051Z,52.60
2018-05-18T16:41:06.514Z,52.60
2018-05-18T16:45:59.993Z,52.40
2018-05-18T16:50:53.461Z,51.50
2018-05-18T16:55:47.326Z,53.60
2018-05-18T17:00:40.759Z,54.10
2018-05-18T17:05:34.224Z,53.70
2018-05-18T17:10:27.610Z,54.10
2018-05-18T17:15:21.837Z,53.90
2018-05-18T17:20:15.261Z,53.50
2018-05-18T17:25:09.741Z,53.20
2018-05-18T17:30:03.364Z,52.80
2018-05-18T17:34:56.793Z,52.30
2018-05-18T17:39:50.237Z,55.60
2018-05-18T17:44:43.704Z,57.40
2018-05-18T17:49:37.307Z,59.30
2018-05-18T17:54:30.838Z,62.20
2018-05-18T17:59:24.998Z,63.90
2018-05-18T18:04:18.467Z,63.80
2018-05-18T18:09:12.745Z,62.90
2018-05-18T18:14:06.356Z,62.90
2018-05-18T18:18:59.757Z,63.50
2018-05-18T18:23:54.075Z,63.20
2018-05-18T18:28:47.604Z,63.50
2018-05-18T18:33:40.964Z,63.80
2018-05-18T18:38:35.464Z,65.30
2018-05-18T18:43:29.694Z,66.10
2018-05-18T18:48:23.185Z,66.10
2018-05-18T18:53:16.621Z,68.50
2018-05-18T18:58:10.993Z,70.70
2018-05-18T19:03:04.783Z,73.10
2018-05-18T19:07:58.321Z,74.00
2018-05-18T19:12:52.429Z,73.00
2018-05-18T19:17:46.623Z,72.90
2018-05-18T19:22:40.858Z,70.40
2018-05-18T19:27:34.609Z,70.40
2018-05-18T19:32:28.067Z,68.50
2018-05-18T19:37:22.300Z,69.10
2018-05-18T19:42:15.754Z,69.10
2018-05-18T19:47:09.169Z,69.10
2018-05-18T19:52:02.654Z,70.80
2018-05-18T19:56:56.094Z,70.80
2018-05-18T20:01:49.542Z,71.90
2018-05-18T20:06:42.995Z,72.10
2018-05-18T20:11:37.169Z,73.20
2018-05-18T20:16:31.652Z,74.10
2018-05-18T20:21:25.166Z,74.10
2018-05-18T20:26:18.726Z,74.40
2018-05-18T20:31:13.012Z,75.10
2018-05-18T20:36:07.257Z,75.50
2018-05-18T20:41:00.925Z,75.50
2018-05-18T20:45:54.346Z,75.80
2018-05-18T20:50:47.812Z,76.80
2018-05-18T20:55:42.038Z,78.50
2018-05-18T21:00:35.482Z,78.40
2018-05-18T21:05:29.778Z,78.30
2018-05-18T21:10:23.985Z,77.80
2018-05-18T21:15:17.475Z,77.80
2018-05-18T21:20:10.923Z,78.00
2018-05-18T21:25:04.462Z,78.00
2018-05-18T21:29:57.920Z,78.70
2018-05-18T21:34:51.347Z,77.90
2018-05-18T21:39:45.556Z,74.70
2018-05-18T21:44:38.978Z,74.70
2018-05-18T21:49:33.417Z,72.70
2018-05-18T21:54:26.867Z,72.70
2018-05-18T21:59:20.406Z,72.50
2018-05-18T22:04:13.891Z,74.20
2018-05-18T22:09:07.623Z,77.50
2018-05-18T22:14:01.209Z,78.30
2018-05-18T22:18:54.734Z,78.20
2018-05-18T22:23:49.137Z,80.10
2018-05-18T22:28:42.590Z,79.30
2018-05-18T22:33:36.051Z,80.10
2018-05-18T22:38:30.260Z,80.30
2018-05-18T22:43:23.691Z,80.40
2018-05-18T22:48:17.318Z,81.40
2018-05-18T22:53:11.571Z,80.40
2018-05-18T22:58:05.890Z,80.30
2018-05-18T23:03:00.240Z,80.20
2018-05-18T23:07:53.690Z,81.10
2018-05-18T23:12:47.120Z,81.40
2018-05-18T23:17:40.507Z,81.10
2018-05-18T23:22:35.007Z,82.60
2018-05-18T23:27:29.347Z,83.30
2018-05-18T23:32:22.878Z,83.20
2018-05-18T23:37:16.330Z,82.60
2018-05-18T23:42:10.526Z,82.50
2018-05-18T23:47:04.840Z,82.90
2018-05-18T23:51:58.364Z,82.90
2018-05-18T23:56:51.829Z,83.40
